sensor_id;sensor_type;location;lat;lon;timestamp;pressure;altitude;pressure_sealevel;temperature;humidity
76358;BME280;65185;21.060;105.826;2023-05-21T00:00:01;100494.34;;;29.57;70.44
76358;BME280;65185;21.060;105.826;2023-05-21T00:02:35;100498.56;;;29.60;70.50
76358;BME280;65185;21.060;105.826;2023-05-21T00:05:02;100505.75;;;29.59;71.01
76358;BME280;65185;21.060;105.826;2023-05-21T00:07:29;100511.91;;;29.60;70.90
76358;BME280;65185;21.060;105.826;2023-05-21T00:09:59;100502.22;;;29.59;70.80
76358;BME280;65185;21.060;105.826;2023-05-21T00:12:25;100510.09;;;29.60;70.77
76358;BME280;65185;21.060;105.826;2023-05-21T00:14:53;100512.75;;;29.60;71.41
76358;BME280;65185;21.060;105.826;2023-05-21T00:17:19;100511.91;;;29.60;71.41
76358;BME280;65185;21.060;105.826;2023-05-21T00:19:46;100517.25;;;29.60;70.98
76358;BME280;65185;21.060;105.826;2023-05-21T00:22:15;100516.28;;;29.61;71.25
76358;BME280;65185;21.060;105.826;2023-05-21T00:24:42;100528.66;;;29.62;71.77
76358;BME280;65185;21.060;105.826;2023-05-21T00:27:12;100520.63;;;29.62;71.08
76358;BME280;65185;21.060;105.826;2023-05-21T00:29:39;100525.97;;;29.62;71.22
76358;BME280;65185;21.060;105.826;2023-05-21T00:32:06;100534.84;;;29.62;71.17
76358;BME280;65185;21.060;105.826;2023-05-21T00:34:33;100529.50;;;29.62;71.91
76358;BME280;65185;21.060;105.826;2023-05-21T00:36:59;100537.50;;;29.62;71.73
76358;BME280;65185;21.060;105.826;2023-05-21T00:39:28;100539.34;;;29.62;71.71
76358;BME280;65185;21.060;105.826;2023-05-21T00:41:54;100542.00;;;29.62;71.75
76358;BME280;65185;21.060;105.826;2023-05-21T00:44:22;100549.06;;;29.63;71.60
76358;BME280;65185;21.060;105.826;2023-05-21T00:46:50;100554.41;;;29.63;71.24
76358;BME280;65185;21.060;105.826;2023-05-21T00:49:21;100552.53;;;29.63;71.38
76358;BME280;65185;21.060;105.826;2023-05-21T00:51:49;100559.72;;;29.63;71.57
76358;BME280;65185;21.060;105.826;2023-05-21T00:54:17;100555.22;;;29.63;71.73
76358;BME280;65185;21.060;105.826;2023-05-21T00:56:44;100559.72;;;29.63;71.58
76358;BME280;65185;21.060;105.826;2023-05-21T00:59:11;100557.06;;;29.63;71.73
76358;BME280;65185;21.060;105.826;2023-05-21T01:01:38;100563.38;;;29.62;71.56
76358;BME280;65185;21.060;105.826;2023-05-21T01:04:05;100565.06;;;29.63;71.48
76358;BME280;65185;21.060;105.826;2023-05-21T01:06:31;100567.75;;;29.63;71.52
76358;BME280;65185;21.060;105.826;2023-05-21T01:09:02;100571.25;;;29.63;71.97
76358;BME280;65185;21.060;105.826;2023-05-21T01:11:50;100568.56;;;29.63;72.08
76358;BME280;65185;21.060;105.826;2023-05-21T01:14:18;100571.09;;;29.65;71.50
76358;BME280;65185;21.060;105.826;2023-05-21T01:16:47;100584.47;;;29.65;71.45
76358;BME280;65185;21.060;105.826;2023-05-21T01:19:17;100577.31;;;29.65;72.13
76358;BME280;65185;21.060;105.826;2023-05-21T01:21:49;100584.47;;;29.65;72.11
76358;BME280;65185;21.060;105.826;2023-05-21T01:24:18;100574.63;;;29.65;71.73
76358;BME280;65185;21.060;105.826;2023-05-21T01:26:44;100588.97;;;29.64;71.48
76358;BME280;65185;21.060;105.826;2023-05-21T01:29:12;100587.97;;;29.65;71.86
76358;BME280;65185;21.060;105.826;2023-05-21T01:32:03;100587.13;;;29.65;71.84
76358;BME280;65185;21.060;105.826;2023-05-21T01:34:43;100583.63;;;29.64;71.04
76358;BME280;65185;21.060;105.826;2023-05-21T01:37:16;100578.16;;;29.66;71.72
76358;BME280;65185;21.060;105.826;2023-05-21T01:39:51;100582.63;;;29.65;71.45
76358;BME280;65185;21.060;105.826;2023-05-21T01:42:21;100581.78;;;29.65;71.93
76358;BME280;65185;21.060;105.826;2023-05-21T01:44:52;100591.38;;;29.67;71.51
76358;BME280;65185;21.060;105.826;2023-05-21T01:47:23;100592.84;;;29.71;72.27
76358;BME280;65185;21.060;105.826;2023-05-21T01:49:50;100588.06;;;29.75;71.96
76358;BME280;65185;21.060;105.826;2023-05-21T01:52:17;100593.28;;;29.76;72.01
76358;BME280;65185;21.060;105.826;2023-05-21T01:54:44;100599.75;;;29.74;72.62
76358;BME280;65185;21.060;105.826;2023-05-21T01:57:11;100588.06;;;29.75;71.96
76358;BME280;65185;21.060;105.826;2023-05-21T01:59:37;100589.06;;;29.74;72.67
76358;BME280;65185;21.060;105.826;2023-05-21T02:02:04;100593.28;;;29.76;72.53
76358;BME280;65185;21.060;105.826;2023-05-21T02:04:31;100598.38;;;29.79;72.74
76358;BME280;65185;21.060;105.826;2023-05-21T02:06:58;100593.84;;;29.80;72.39
76358;BME280;65185;21.060;105.826;2023-05-21T02:09:24;100592.19;;;29.79;72.29
76358;BME280;65185;21.060;105.826;2023-05-21T02:11:51;100590.47;;;29.78;72.58
76358;BME280;65185;21.060;105.826;2023-05-21T02:56:13;100564.00;;;31.22;74.70
76358;BME280;65185;21.060;105.826;2023-05-21T02:58:40;100569.19;;;31.33;73.57
76358;BME280;65185;21.060;105.826;2023-05-21T03:01:07;100558.78;;;31.40;73.26
76358;BME280;65185;21.060;105.826;2023-05-21T03:03:34;100551.69;;;31.49;73.37
76358;BME280;65185;21.060;105.826;2023-05-21T03:06:01;100550.88;;;31.48;73.36
76358;BME280;65185;21.060;105.826;2023-05-21T03:08:27;100550.19;;;31.46;73.61
76358;BME280;65185;21.060;105.826;2023-05-21T03:10:54;100540.97;;;31.49;74.16
76358;BME280;65185;21.060;105.826;2023-05-21T03:13:21;100543.81;;;31.47;73.20
76358;BME280;65185;21.060;105.826;2023-05-21T03:15:48;100542.53;;;31.51;72.84
76358;BME280;65185;21.060;105.826;2023-05-21T03:18:14;100543.78;;;31.57;72.18
76358;BME280;65185;21.060;105.826;2023-05-21T03:20:41;100545.44;;;31.67;71.45
76358;BME280;65185;21.060;105.826;2023-05-21T03:23:11;100542.72;;;31.86;70.39
76358;BME280;65185;21.060;105.826;2023-05-21T03:25:39;100544.69;;;31.94;71.24
76358;BME280;65185;21.060;105.826;2023-05-21T03:28:05;100549.81;;;32.14;70.32
76358;BME280;65185;21.060;105.826;2023-05-21T03:30:35;100540.56;;;31.99;71.56
76358;BME280;65185;21.060;105.826;2023-05-21T03:33:03;100542.97;;;31.93;71.42
76358;BME280;65185;21.060;105.826;2023-05-21T03:35:31;100536.50;;;31.95;70.97
76358;BME280;65185;21.060;105.826;2023-05-21T03:37:58;100532.13;;;32.21;72.20
76358;BME280;65185;21.060;105.826;2023-05-21T03:40:24;100532.91;;;32.31;69.88
76358;BME280;65185;21.060;105.826;2023-05-21T03:42:51;100526.09;;;32.37;69.63
76358;BME280;65185;21.060;105.826;2023-05-21T03:45:18;100521.03;;;32.44;69.63
76358;BME280;65185;21.060;105.826;2023-05-21T03:47:44;100523.22;;;32.48;68.87
76358;BME280;65185;21.060;105.826;2023-05-21T03:50:11;100510.28;;;32.61;67.80
76358;BME280;65185;21.060;105.826;2023-05-21T03:52:38;100517.13;;;32.73;67.51
76358;BME280;65185;21.060;105.826;2023-05-21T03:55:05;100510.28;;;32.61;68.12
76358;BME280;65185;21.060;105.826;2023-05-21T03:57:32;100520.09;;;32.70;68.72
76358;BME280;65185;21.060;105.826;2023-05-21T03:59:59;100497.25;;;32.84;67.52
76358;BME280;65185;21.060;105.826;2023-05-21T04:02:26;100503.06;;;32.79;67.03
76358;BME280;65185;21.060;105.826;2023-05-21T04:04:52;100500.09;;;32.82;66.48
76358;BME280;65185;21.060;105.826;2023-05-21T04:07:20;100498.56;;;32.80;67.16
76358;BME280;65185;21.060;105.826;2023-05-21T04:09:48;100494.72;;;33.00;67.64
76358;BME280;65185;21.060;105.826;2023-05-21T04:12:14;100486.34;;;33.20;65.23
76358;BME280;65185;21.060;105.826;2023-05-21T04:14:43;100477.25;;;33.21;64.83
76358;BME280;65185;21.060;105.826;2023-05-21T04:17:09;100471.09;;;33.29;65.32
76358;BME280;65185;21.060;105.826;2023-05-21T04:19:37;100478.34;;;33.28;65.63
76358;BME280;65185;21.060;105.826;2023-05-21T04:22:04;100470.28;;;33.28;65.81
76358;BME280;65185;21.060;105.826;2023-05-21T04:24:31;100475.81;;;33.53;64.61
76358;BME280;65185;21.060;105.826;2023-05-21T04:26:58;100471.09;;;33.47;64.74
76358;BME280;65185;21.060;105.826;2023-05-21T04:29:26;100459.28;;;33.40;65.20
76358;BME280;65185;21.060;105.826;2023-05-21T04:31:55;100457.00;;;33.27;65.33
76358;BME280;65185;21.060;105.826;2023-05-21T04:34:21;100456.88;;;33.54;64.04
76358;BME280;65185;21.060;105.826;2023-05-21T04:36:48;100452.34;;;33.63;63.39
76358;BME280;65185;21.060;105.826;2023-05-21T04:39:16;100451.78;;;33.51;64.45
76358;BME280;65185;21.060;105.826;2023-05-21T04:41:43;100456.72;;;33.64;63.78
76358;BME280;65185;21.060;105.826;2023-05-21T04:44:10;100453.66;;;33.59;63.31
76358;BME280;65185;21.060;105.826;2023-05-21T04:46:39;100441.78;;;33.61;64.14
76358;BME280;65185;21.060;105.826;2023-05-21T04:49:06;100448.94;;;33.53;63.78
76358;BME280;65185;21.060;105.826;2023-05-21T04:51:33;100440.53;;;33.48;64.34
76358;BME280;65185;21.060;105.826;2023-05-21T04:54:03;100446.75;;;33.48;65.22
76358;BME280;65185;21.060;105.826;2023-05-21T04:56:29;100442.97;;;33.41;64.39
76358;BME280;65185;21.060;105.826;2023-05-21T04:58:56;100448.13;;;33.35;64.81
76358;BME280;65185;21.060;105.826;2023-05-21T05:01:24;100438.34;;;33.25;65.11
76358;BME280;65185;21.060;105.826;2023-05-21T05:03:52;100437.56;;;33.33;64.03
76358;BME280;65185;21.060;105.826;2023-05-21T05:06:19;100439.44;;;33.41;64.83
76358;BME280;65185;21.060;105.826;2023-05-21T05:08:46;100430.97;;;33.45;63.87
76358;BME280;65185;21.060;105.826;2023-05-21T05:11:13;100429.31;;;33.60;64.04
76358;BME280;65185;21.060;105.826;2023-05-21T05:13:40;100419.38;;;33.53;64.84
76358;BME280;65185;21.060;105.826;2023-05-21T05:16:07;100422.28;;;33.59;64.27
76358;BME280;65185;21.060;105.826;2023-05-21T05:18:34;100411.03;;;33.64;63.02
76358;BME280;65185;21.060;105.826;2023-05-21T05:21:01;100412.44;;;33.76;63.32
76358;BME280;65185;21.060;105.826;2023-05-21T05:23:28;100410.59;;;33.76;63.69
76358;BME280;65185;21.060;105.826;2023-05-21T05:25:55;100411.47;;;33.51;64.27
76358;BME280;65185;21.060;105.826;2023-05-21T05:28:21;100412.69;;;33.31;65.17
76358;BME280;65185;21.060;105.826;2023-05-21T05:30:48;100406.88;;;33.44;64.50
76358;BME280;65185;21.060;105.826;2023-05-21T05:33:15;100396.63;;;33.39;64.99
76358;BME280;65185;21.060;105.826;2023-05-21T05:35:42;100400.06;;;33.49;65.27
76358;BME280;65185;21.060;105.826;2023-05-21T05:38:09;100387.66;;;33.56;64.70
76358;BME280;65185;21.060;105.826;2023-05-21T05:40:36;100385.50;;;33.60;64.11
76358;BME280;65185;21.060;105.826;2023-05-21T05:43:03;100384.97;;;33.56;65.49
76358;BME280;65185;21.060;105.826;2023-05-21T05:45:29;100379.59;;;33.56;65.27
76358;BME280;65185;21.060;105.826;2023-05-21T05:47:56;100380.44;;;33.57;65.16
76358;BME280;65185;21.060;105.826;2023-05-21T05:50:23;100381.41;;;33.48;65.27
76358;BME280;65185;21.060;105.826;2023-05-21T05:52:50;100380.88;;;33.44;65.75
76358;BME280;65185;21.060;105.826;2023-05-21T05:55:16;100373.69;;;33.53;65.43
76358;BME280;65185;21.060;105.826;2023-05-21T05:57:43;100373.91;;;33.59;64.57
76358;BME280;65185;21.060;105.826;2023-05-21T06:00:10;100364.00;;;33.68;65.37
76358;BME280;65185;21.060;105.826;2023-05-21T06:02:37;100368.91;;;33.80;66.48
76358;BME280;65185;21.060;105.826;2023-05-21T06:05:04;100362.38;;;33.83;64.67
76358;BME280;65185;21.060;105.826;2023-05-21T06:07:36;100359.13;;;34.13;64.27
76358;BME280;65185;21.060;105.826;2023-05-21T06:10:07;100362.81;;;34.20;63.75
76358;BME280;65185;21.060;105.826;2023-05-21T06:12:34;100350.19;;;33.96;64.10
76358;BME280;65185;21.060;105.826;2023-05-21T06:15:01;100348.09;;;33.82;63.97
76358;BME280;65185;21.060;105.826;2023-05-21T06:17:28;100337.94;;;34.02;64.42
76358;BME280;65185;21.060;105.826;2023-05-21T06:19:56;100330.53;;;34.12;63.40
76358;BME280;65185;21.060;105.826;2023-05-21T06:22:22;100324.97;;;33.97;63.94
76358;BME280;65185;21.060;105.826;2023-05-21T06:24:49;100325.00;;;34.05;64.51
76358;BME280;65185;21.060;105.826;2023-05-21T06:27:16;100322.28;;;33.97;64.75
76358;BME280;65185;21.060;105.826;2023-05-21T06:29:42;100315.06;;;33.98;64.93
76358;BME280;65185;21.060;105.826;2023-05-21T06:32:09;100316.91;;;34.13;63.60
76358;BME280;65185;21.060;105.826;2023-05-21T06:34:36;100312.19;;;33.99;63.78
76358;BME280;65185;21.060;105.826;2023-05-21T06:37:02;100303.28;;;33.91;64.13
76358;BME280;65185;21.060;105.826;2023-05-21T06:39:29;100296.19;;;33.90;63.12
76358;BME280;65185;21.060;105.826;2023-05-21T06:41:56;100294.53;;;33.97;63.43
76358;BME280;65185;21.060;105.826;2023-05-21T06:44:23;100295.25;;;34.07;63.67
76358;BME280;65185;21.060;105.826;2023-05-21T06:46:49;100292.03;;;33.95;64.30
76358;BME280;65185;21.060;105.826;2023-05-21T06:49:16;100285.44;;;33.90;65.96
76358;BME280;65185;21.060;105.826;2023-05-21T06:51:43;100285.25;;;33.91;65.93
76358;BME280;65185;21.060;105.826;2023-05-21T06:54:09;100286.84;;;34.02;64.23
76358;BME280;65185;21.060;105.826;2023-05-21T06:56:36;100279.44;;;33.96;63.89
76358;BME280;65185;21.060;105.826;2023-05-21T06:59:03;100277.38;;;33.82;65.20
76358;BME280;65185;21.060;105.826;2023-05-21T07:01:29;100279.09;;;33.99;64.12
76358;BME280;65185;21.060;105.826;2023-05-21T07:03:57;100277.69;;;33.79;65.67
76358;BME280;65185;21.060;105.826;2023-05-21T07:06:24;100267.78;;;33.79;65.88
76358;BME280;65185;21.060;105.826;2023-05-21T07:08:51;100266.44;;;33.91;64.80
76358;BME280;65185;21.060;105.826;2023-05-21T07:11:17;100259.75;;;33.95;65.43
76358;BME280;65185;21.060;105.826;2023-05-21T07:13:44;100256.91;;;34.05;65.36
76358;BME280;65185;21.060;105.826;2023-05-21T07:16:11;100248.69;;;33.98;65.11
76358;BME280;65185;21.060;105.826;2023-05-21T07:18:37;100245.44;;;33.95;64.18
76358;BME280;65185;21.060;105.826;2023-05-21T07:21:04;100249.50;;;33.91;64.26
76358;BME280;65185;21.060;105.826;2023-05-21T07:23:31;100240.56;;;33.82;64.27
76358;BME280;65185;21.060;105.826;2023-05-21T07:25:58;100240.59;;;33.74;63.70
76358;BME280;65185;21.060;105.826;2023-05-21T07:28:24;100232.31;;;33.84;64.60
76358;BME280;65185;21.060;105.826;2023-05-21T07:30:51;100224.44;;;33.82;64.46
76358;BME280;65185;21.060;105.826;2023-05-21T07:33:18;100232.56;;;33.98;63.72
76358;BME280;65185;21.060;105.826;2023-05-21T07:35:45;100232.56;;;33.98;63.85
76358;BME280;65185;21.060;105.826;2023-05-21T07:38:12;100224.28;;;33.92;62.36
76358;BME280;65185;21.060;105.826;2023-05-21T07:40:39;100222.94;;;33.88;63.41
76358;BME280;65185;21.060;105.826;2023-05-21T07:43:06;100219.06;;;33.90;62.22
76358;BME280;65185;21.060;105.826;2023-05-21T07:45:32;100219.94;;;33.99;62.40
76358;BME280;65185;21.060;105.826;2023-05-21T07:47:59;100214.06;;;34.03;62.18
76358;BME280;65185;21.060;105.826;2023-05-21T07:50:26;100210.84;;;34.08;61.56
76358;BME280;65185;21.060;105.826;2023-05-21T07:52:53;100212.06;;;34.05;63.03
76358;BME280;65185;21.060;105.826;2023-05-21T07:55:19;100212.16;;;34.28;63.62
76358;BME280;65185;21.060;105.826;2023-05-21T07:57:46;100202.91;;;34.31;62.34
76358;BME280;65185;21.060;105.826;2023-05-21T08:00:13;100203.41;;;34.26;62.64
76358;BME280;65185;21.060;105.826;2023-05-21T08:02:40;100200.09;;;34.24;63.13
76358;BME280;65185;21.060;105.826;2023-05-21T08:05:07;100211.34;;;34.19;61.54
76358;BME280;65185;21.060;105.826;2023-05-21T08:07:35;100200.59;;;34.19;62.04
76358;BME280;65185;21.060;105.826;2023-05-21T08:10:02;100203.78;;;34.31;63.11
76358;BME280;65185;21.060;105.826;2023-05-21T08:12:29;100198.22;;;34.33;64.52
76358;BME280;65185;21.060;105.826;2023-05-21T08:14:59;100192.53;;;34.19;63.74
76358;BME280;65185;21.060;105.826;2023-05-21T08:17:26;100196.72;;;34.22;63.64
76358;BME280;65185;21.060;105.826;2023-05-21T08:19:55;100189.34;;;34.24;63.15
76358;BME280;65185;21.060;105.826;2023-05-21T08:22:22;100189.47;;;34.31;61.81
76358;BME280;65185;21.060;105.826;2023-05-21T08:24:48;100193.81;;;34.32;62.12
76358;BME280;65185;21.060;105.826;2023-05-21T08:27:15;100181.41;;;34.31;61.67
76358;BME280;65185;21.060;105.826;2023-05-21T08:29:42;100174.88;;;34.17;63.30
76358;BME280;65185;21.060;105.826;2023-05-21T08:32:09;100173.88;;;34.18;65.73
76358;BME280;65185;21.060;105.826;2023-05-21T08:34:35;100178.56;;;34.24;66.86
76358;BME280;65185;21.060;105.826;2023-05-21T08:37:02;100165.25;;;34.31;63.79
76358;BME280;65185;21.060;105.826;2023-05-21T08:39:29;100159.88;;;34.31;63.88
76358;BME280;65185;21.060;105.826;2023-05-21T08:42:45;100159.38;;;34.27;63.21
76358;BME280;65185;21.060;105.826;2023-05-21T08:44:47;100160.41;;;34.18;63.57
76358;BME280;65185;21.060;105.826;2023-05-21T08:47:18;100165.13;;;34.16;64.44
76358;BME280;65185;21.060;105.826;2023-05-21T08:49:50;100167.28;;;34.20;65.07
76358;BME280;65185;21.060;105.826;2023-05-21T08:52:18;100164.44;;;34.22;64.44
76358;BME280;65185;21.060;105.826;2023-05-21T08:54:45;100163.72;;;34.36;62.80
76358;BME280;65185;21.060;105.826;2023-05-21T08:57:13;100157.38;;;34.29;63.37
76358;BME280;65185;21.060;105.826;2023-05-21T08:59:40;100158.38;;;34.28;64.08
76358;BME280;65185;21.060;105.826;2023-05-21T09:02:13;100141.72;;;34.33;64.49
76358;BME280;65185;21.060;105.826;2023-05-21T09:04:41;100149.47;;;34.28;64.68
76358;BME280;65185;21.060;105.826;2023-05-21T09:07:09;100144.41;;;34.24;65.07
76358;BME280;65185;21.060;105.826;2023-05-21T09:09:46;100147.47;;;34.30;64.35
76358;BME280;65185;21.060;105.826;2023-05-21T09:12:14;100138.66;;;34.36;64.45
76358;BME280;65185;21.060;105.826;2023-05-21T09:14:42;100138.66;;;34.44;64.84
76358;BME280;65185;21.060;105.826;2023-05-21T09:17:12;100138.81;;;34.50;65.66
76358;BME280;65185;21.060;105.826;2023-05-21T09:20:14;100138.50;;;34.53;67.31
76358;BME280;65185;21.060;105.826;2023-05-21T09:22:46;100135.13;;;34.43;67.81
76358;BME280;65185;21.060;105.826;2023-05-21T09:25:15;100145.75;;;34.29;68.01
76358;BME280;65185;21.060;105.826;2023-05-21T09:27:42;100137.06;;;34.18;69.38
76358;BME280;65185;21.060;105.826;2023-05-21T09:30:14;100149.16;;;34.14;69.08
76358;BME280;65185;21.060;105.826;2023-05-21T09:32:43;100146.97;;;34.10;69.44
76358;BME280;65185;21.060;105.826;2023-05-21T09:35:14;100149.72;;;34.02;69.86
76358;BME280;65185;21.060;105.826;2023-05-21T09:37:42;100152.84;;;33.89;69.82
76358;BME280;65185;21.060;105.826;2023-05-21T09:40:20;100142.47;;;33.86;69.36
76358;BME280;65185;21.060;105.826;2023-05-21T09:42:52;100145.31;;;33.85;70.80
76358;BME280;65185;21.060;105.826;2023-05-21T09:45:20;100146.84;;;33.87;70.25
76358;BME280;65185;21.060;105.826;2023-05-21T09:47:48;100136.94;;;33.80;70.24
76358;BME280;65185;21.060;105.826;2023-05-21T09:50:19;100132.22;;;33.82;69.96
76358;BME280;65185;21.060;105.826;2023-05-21T09:52:47;100137.78;;;33.72;70.69
76358;BME280;65185;21.060;105.826;2023-05-21T09:55:16;100141.94;;;33.75;69.97
76358;BME280;65185;21.060;105.826;2023-05-21T09:57:44;100146.66;;;33.73;70.78
76358;BME280;65185;21.060;105.826;2023-05-21T10:02:45;100157.59;;;33.71;70.16
76358;BME280;65185;21.060;105.826;2023-05-21T10:05:16;100171.34;;;33.60;71.59
76358;BME280;65185;21.060;105.826;2023-05-21T10:07:52;100178.41;;;33.53;72.14
76358;BME280;65185;21.060;105.826;2023-05-21T10:10:20;100170.00;;;33.56;70.65
76358;BME280;65185;21.060;105.826;2023-05-21T10:15:27;100169.84;;;33.58;70.80
76358;BME280;65185;21.060;105.826;2023-05-21T10:17:58;100167.00;;;33.59;69.54
76358;BME280;65185;21.060;105.826;2023-05-21T10:20:26;100176.72;;;33.60;70.13
76358;BME280;65185;21.060;105.826;2023-05-21T10:22:53;100180.25;;;33.53;69.77
76358;BME280;65185;21.060;105.826;2023-05-21T10:25:22;100187.50;;;33.52;69.99
76358;BME280;65185;21.060;105.826;2023-05-21T10:27:49;100190.84;;;33.54;70.81
76358;BME280;65185;21.060;105.826;2023-05-21T10:30:17;100203.25;;;33.55;69.08
76358;BME280;65185;21.060;105.826;2023-05-21T10:32:44;100206.81;;;33.56;70.67
76358;BME280;65185;21.060;105.826;2023-05-21T10:35:17;100198.41;;;33.59;68.88
76358;BME280;65185;21.060;105.826;2023-05-21T10:37:44;100200.59;;;33.63;68.22
76358;BME280;65185;21.060;105.826;2023-05-21T10:40:11;100211.97;;;33.49;68.62
76358;BME280;65185;21.060;105.826;2023-05-21T10:45:41;100208.59;;;33.39;68.57
76358;BME280;65185;21.060;105.826;2023-05-21T10:54:07;100211.78;;;33.43;67.59
76358;BME280;65185;21.060;105.826;2023-05-21T10:56:43;100217.16;;;33.43;68.91
76358;BME280;65185;21.060;105.826;2023-05-21T10:59:24;100210.94;;;33.34;68.66
76358;BME280;65185;21.060;105.826;2023-05-21T11:01:56;100217.66;;;33.30;69.07
76358;BME280;65185;21.060;105.826;2023-05-21T11:04:27;100213.44;;;33.27;69.35
76358;BME280;65185;21.060;105.826;2023-05-21T11:06:54;100214.28;;;33.28;68.73
76358;BME280;65185;21.060;105.826;2023-05-21T11:09:25;100221.66;;;33.26;68.76
76358;BME280;65185;21.060;105.826;2023-05-21T11:11:56;100218.97;;;33.26;68.56
76358;BME280;65185;21.060;105.826;2023-05-21T11:14:55;100213.91;;;33.15;68.10
76358;BME280;65185;21.060;105.826;2023-05-21T11:17:40;100211.91;;;33.17;68.52
76358;BME280;65185;21.060;105.826;2023-05-21T11:20:12;100221.16;;;33.22;67.37
76358;BME280;65185;21.060;105.826;2023-05-21T11:22:40;100221.09;;;33.14;69.12
76358;BME280;65185;21.060;105.826;2023-05-21T11:25:07;100223.63;;;33.16;69.21
76358;BME280;65185;21.060;105.826;2023-05-21T11:27:40;100224.78;;;33.05;69.18
76358;BME280;65185;21.060;105.826;2023-05-21T11:30:09;100231.38;;;32.85;70.10
76358;BME280;65185;21.060;105.826;2023-05-21T11:33:16;100239.72;;;32.74;70.24
76358;BME280;65185;21.060;105.826;2023-05-21T11:35:29;100236.16;;;32.66;70.47
76358;BME280;65185;21.060;105.826;2023-05-21T11:37:55;100242.84;;;32.62;70.60
76358;BME280;65185;21.060;105.826;2023-05-21T11:40:23;100234.94;;;32.60;70.58
76358;BME280;65185;21.060;105.826;2023-05-21T11:42:55;100241.78;;;32.55;70.55
76358;BME280;65185;21.060;105.826;2023-05-21T11:45:32;100255.91;;;32.57;70.20
76358;BME280;65185;21.060;105.826;2023-05-21T11:47:59;100242.47;;;32.57;69.90
76358;BME280;65185;21.060;105.826;2023-05-21T11:50:26;100245.47;;;32.54;69.97
76358;BME280;65185;21.060;105.826;2023-05-21T11:52:55;100248.66;;;32.57;70.09
76358;BME280;65185;21.060;105.826;2023-05-21T11:55:24;100254.97;;;32.48;70.34
76358;BME280;65185;21.060;105.826;2023-05-21T11:57:54;100260.84;;;32.44;70.11
76358;BME280;65185;21.060;105.826;2023-05-21T12:00:20;100267.00;;;32.44;70.26
76358;BME280;65185;21.060;105.826;2023-05-21T12:02:50;100277.19;;;32.41;69.68
76358;BME280;65185;21.060;105.826;2023-05-21T12:05:18;100276.66;;;32.37;69.85
76358;BME280;65185;21.060;105.826;2023-05-21T12:07:48;100283.03;;;32.36;69.59
76358;BME280;65185;21.060;105.826;2023-05-21T12:10:15;100277.50;;;32.38;70.31
76358;BME280;65185;21.060;105.826;2023-05-21T12:12:42;100277.91;;;32.43;69.79
76358;BME280;65185;21.060;105.826;2023-05-21T12:15:09;100282.81;;;32.47;69.76
76358;BME280;65185;21.060;105.826;2023-05-21T12:17:37;100283.88;;;32.54;68.80
76358;BME280;65185;21.060;105.826;2023-05-21T12:20:04;100293.72;;;32.46;69.30
76358;BME280;65185;21.060;105.826;2023-05-21T12:22:33;100286.56;;;32.37;70.01
76358;BME280;65185;21.060;105.826;2023-05-21T12:25:00;100289.03;;;32.30;70.16
76358;BME280;65185;21.060;105.826;2023-05-21T12:27:27;100297.59;;;32.33;69.74
76358;BME280;65185;21.060;105.826;2023-05-21T12:29:55;100302.75;;;32.27;70.46
76358;BME280;65185;21.060;105.826;2023-05-21T12:32:26;100307.72;;;32.22;70.36
76358;BME280;65185;21.060;105.826;2023-05-21T12:34:55;100307.72;;;32.22;70.38
76358;BME280;65185;21.060;105.826;2023-05-21T12:37:29;100310.03;;;32.17;70.43
76358;BME280;65185;21.060;105.826;2023-05-21T12:40:02;100316.69;;;32.13;70.42
76358;BME280;65185;21.060;105.826;2023-05-21T12:42:36;100322.06;;;32.13;70.82
76358;BME280;65185;21.060;105.826;2023-05-21T12:45:08;100315.22;;;32.18;70.76
76358;BME280;65185;21.060;105.826;2023-05-21T12:47:36;100326.44;;;32.14;71.18
76358;BME280;65185;21.060;105.826;2023-05-21T12:50:06;100329.88;;;32.06;70.92
76358;BME280;65185;21.060;105.826;2023-05-21T12:52:34;100336.38;;;32.04;71.51
76358;BME280;65185;21.060;105.826;2023-05-21T12:55:01;100323.28;;;32.01;71.20
76358;BME280;65185;21.060;105.826;2023-05-21T12:57:35;100328.56;;;31.93;71.25
76358;BME280;65185;21.060;105.826;2023-05-21T13:00:04;100330.97;;;31.96;71.37
76358;BME280;65185;21.060;105.826;2023-05-21T13:02:42;100333.63;;;31.96;71.31
76358;BME280;65185;21.060;105.826;2023-05-21T13:05:10;100338.19;;;31.86;71.16
76358;BME280;65185;21.060;105.826;2023-05-21T13:07:42;100340.31;;;31.82;71.48
76358;BME280;65185;21.060;105.826;2023-05-21T13:10:12;100358.22;;;31.82;71.83
76358;BME280;65185;21.060;105.826;2023-05-21T13:12:39;100365.19;;;31.75;71.95
76358;BME280;65185;21.060;105.826;2023-05-21T13:15:06;100363.53;;;31.74;72.23
76358;BME280;65185;21.060;105.826;2023-05-21T13:17:33;100367.34;;;31.71;72.26
76358;BME280;65185;21.060;105.826;2023-05-21T13:20:08;100365.94;;;31.67;72.99
76358;BME280;65185;21.060;105.826;2023-05-21T13:22:41;100366.38;;;31.72;72.89
76358;BME280;65185;21.060;105.826;2023-05-21T13:25:09;100367.19;;;31.73;72.29
76358;BME280;65185;21.060;105.826;2023-05-21T13:27:37;100375.00;;;31.84;71.93
76358;BME280;65185;21.060;105.826;2023-05-21T13:30:05;100374.25;;;31.74;72.19
76358;BME280;65185;21.060;105.826;2023-05-21T13:32:33;100382.56;;;31.71;72.29